Time;durP1;ratioP1;P1;durP2;ratioP2;P2;SDS_P1;SDS_P2;PMS_P1;PMS_P2;Temp;Humidity;BMP_temperature;BMP_pressure;BME280_temperature;BME280_humidity;BME280_pressure;Samples;Min_cycle;Max_cycle;Signal;HPM_P1;HPM_P2
2022/07/15 00:00:31;;;;;;;17.67;6.18;;;;;;;13.89;80.16;102193.13;4987032;28;20126;-72
2022/07/15 00:02:57;;;;;;;19.80;5.97;;;;;;;13.90;80.38;102189.28;4987358;28;20030;-73
2022/07/15 00:05:22;;;;;;;16.52;6.38;;;;;;;13.89;79.92;102197.78;4993020;28;20037;-71
2022/07/15 00:07:48;;;;;;;12.65;5.97;;;;;;;13.85;80.12;102185.50;5007071;28;20079;-72
2022/07/15 00:10:18;;;;;;;14.98;5.80;;;;;;;13.81;80.31;102187.84;4987214;28;20072;-72
2022/07/15 00:12:49;;;;;;;15.68;6.47;;;;;;;13.76;80.16;102185.75;4994434;28;20037;-72
2022/07/15 00:15:16;;;;;;;19.02;5.95;;;;;;;13.69;80.33;102190.47;5006749;28;20101;-71
2022/07/15 00:17:42;;;;;;;19.80;5.97;;;;;;;13.63;80.37;102196.81;4987064;28;20030;-72
2022/07/15 00:20:09;;;;;;;16.92;5.90;;;;;;;13.59;80.66;102195.59;4984635;28;20065;-71
2022/07/15 00:22:35;;;;;;;13.18;6.35;;;;;;;13.58;81.00;102195.78;5002125;28;20038;-71
2022/07/15 00:25:00;;;;;;;14.30;5.90;;;;;;;13.49;81.51;102189.69;5004079;28;20083;-70
2022/07/15 00:27:25;;;;;;;13.40;6.03;;;;;;;13.52;81.43;102182.84;5006313;28;20362;-71
2022/07/15 00:29:51;;;;;;;18.73;6.00;;;;;;;13.52;81.48;102182.84;4988984;28;20031;-71
2022/07/15 00:32:17;;;;;;;18.17;6.15;;;;;;;13.50;81.80;102188.59;4986932;28;20465;-71
2022/07/15 00:34:42;;;;;;;15.13;5.55;;;;;;;13.46;81.43;102185.44;4986437;28;20101;-70
2022/07/15 00:37:08;;;;;;;20.25;6.53;;;;;;;13.47;81.85;102183.50;4986111;28;20515;-71
2022/07/15 00:39:33;;;;;;;18.42;6.03;;;;;;;13.49;81.51;102182.25;4995732;28;20396;-72
2022/07/15 00:41:59;;;;;;;16.33;6.20;;;;;;;13.50;81.49;102177.56;4992790;28;20034;-71
2022/07/15 00:44:25;;;;;;;16.83;5.90;;;;;;;13.51;81.57;102176.50;4986421;28;20041;-71
2022/07/15 00:46:51;;;;;;;18.05;6.38;;;;;;;13.44;81.68;102175.69;4986656;28;20038;-71
2022/07/15 00:49:16;;;;;;;15.00;5.97;;;;;;;13.37;81.50;102178.44;4992474;28;20113;-69
2022/07/15 00:51:49;;;;;;;18.63;6.38;;;;;;;13.37;81.63;102174.84;4993677;28;20117;-71
2022/07/15 00:54:16;;;;;;;17.15;6.50;;;;;;;13.33;82.06;102179.09;5004225;28;20038;-71
2022/07/15 00:56:48;;;;;;;16.25;6.80;;;;;;;13.29;81.96;102178.69;5006022;28;20101;-71
2022/07/15 00:59:15;;;;;;;19.45;6.82;;;;;;;13.30;82.23;102176.78;4992328;28;20092;-72
2022/07/15 01:01:41;;;;;;;17.63;7.50;;;;;;;13.30;82.43;102174.88;4985969;28;20449;-72
2022/07/15 01:04:07;;;;;;;20.70;8.75;;;;;;;13.31;82.12;102172.97;4984913;28;20022;-72
2022/07/15 01:06:32;;;;;;;21.55;7.03;;;;;;;13.30;82.31;102171.25;4985806;28;20054;-71
2022/07/15 01:08:58;;;;;;;19.10;6.70;;;;;;;13.27;82.02;102172.53;4996736;28;20057;-72
2022/07/15 01:11:24;;;;;;;20.90;6.70;;;;;;;13.24;82.14;102172.97;5006221;28;20145;-71
2022/07/15 01:13:50;;;;;;;17.20;6.93;;;;;;;13.19;82.13;102175.50;5004762;28;20034;-71
2022/07/15 01:16:15;;;;;;;19.90;6.78;;;;;;;13.18;82.69;102176.56;4999707;28;20038;-71
2022/07/15 01:18:40;;;;;;;18.52;6.28;;;;;;;13.19;82.55;102173.59;5003971;28;20030;-71
2022/07/15 01:21:06;;;;;;;18.55;6.53;;;;;;;13.14;82.65;102169.78;4988006;28;20089;-71
2022/07/15 01:23:31;;;;;;;18.02;7.40;;;;;;;13.13;82.44;102174.47;4994166;28;20396;-71
2022/07/15 01:25:56;;;;;;;18.73;6.45;;;;;;;13.12;82.38;102171.91;4991786;28;20031;-70
2022/07/15 01:28:22;;;;;;;19.25;6.93;;;;;;;13.06;82.81;102168.09;5002773;28;20033;-71
2022/07/15 01:30:47;;;;;;;18.83;6.93;;;;;;;13.01;82.68;102176.16;5004996;28;20392;-71
2022/07/15 01:33:13;;;;;;;19.52;6.90;;;;;;;12.93;83.59;102171.72;5003324;28;20548;-70
2022/07/15 01:35:38;;;;;;;17.13;7.10;;;;;;;12.90;83.47;102179.56;4995059;28;20030;-70
2022/07/15 01:38:03;;;;;;;18.77;7.03;;;;;;;12.84;83.39;102186.78;4984782;28;20443;-71
2022/07/15 01:40:29;;;;;;;19.20;6.82;;;;;;;12.83;84.02;102187.88;4985125;28;20035;-71
2022/07/15 01:42:54;;;;;;;17.13;7.03;;;;;;;12.79;84.21;102189.34;4985000;28;20027;-70
2022/07/15 01:45:19;;;;;;;16.27;6.70;;;;;;;12.79;84.60;102197.63;4987195;28;20109;-70
2022/07/15 01:47:47;;;;;;;18.80;6.60;;;;;;;12.78;84.48;102187.66;5001724;28;20075;-71
2022/07/15 01:50:12;;;;;;;18.10;6.70;;;;;;;12.82;84.64;102191.66;4989203;28;20026;-71
2022/07/15 01:52:38;;;;;;;18.63;6.97;;;;;;;12.82;84.45;102191.66;5000717;28;20029;-71
2022/07/15 01:55:05;;;;;;;25.52;8.50;;;;;;;12.78;84.63;102193.16;4993828;28;20444;-70
2022/07/15 01:57:31;;;;;;;22.65;7.25;;;;;;;12.76;84.60;102191.66;4986631;28;20120;-71
2022/07/15 01:59:56;;;;;;;16.23;6.70;;;;;;;12.77;84.56;102196.13;5003953;28;20073;-70
2022/07/15 02:02:22;;;;;;;13.00;6.10;;;;;;;12.76;84.84;102192.50;5003664;28;20034;-71
2022/07/15 02:04:47;;;;;;;18.90;6.50;;;;;;;12.70;84.80;102194.22;5001204;28;20195;-70
2022/07/15 02:07:12;;;;;;;18.45;6.10;;;;;;;12.65;85.41;102190.41;5000474;28;20051;-71
2022/07/15 02:09:37;;;;;;;12.85;5.70;;;;;;;12.60;85.26;102193.78;5004745;28;20169;-71
2022/07/15 02:12:03;;;;;;;22.83;7.90;;;;;;;12.56;85.13;102198.03;5003836;28;20050;-71
2022/07/15 02:14:28;;;;;;;17.95;6.30;;;;;;;12.52;84.83;102201.41;5000639;28;20088;-71
2022/07/15 02:16:54;;;;;;;19.80;6.75;;;;;;;12.46;85.51;102192.91;4993707;28;20034;-70
2022/07/15 02:19:19;;;;;;;17.63;6.55;;;;;;;12.48;85.31;102198.25;5003896;28;20266;-71
2022/07/15 02:21:45;;;;;;;24.27;7.15;;;;;;;12.45;85.82;102199.50;5004518;28;20034;-71
2022/07/15 02:24:10;;;;;;;17.40;7.00;;;;;;;12.42;85.87;102193.59;5002286;28;20041;-71
2022/07/15 02:26:35;;;;;;;15.90;6.10;;;;;;;12.38;86.23;102189.53;4985878;28;20649;-70
2022/07/15 02:29:01;;;;;;;20.23;7.65;;;;;;;12.27;86.26;102191.00;4984827;28;20034;-70
2022/07/15 02:31:26;;;;;;;14.07;5.63;;;;;;;12.22;86.13;102190.78;4983866;28;20030;-71
2022/07/15 02:33:52;;;;;;;17.55;6.65;;;;;;;12.11;86.20;102186.72;4983945;28;20085;-70
2022/07/15 02:36:17;;;;;;;17.27;6.30;;;;;;;12.05;87.07;102193.06;4983987;28;20018;-70
2022/07/15 02:38:43;;;;;;;22.58;7.07;;;;;;;12.02;87.35;102187.13;5004755;28;20026;-70
2022/07/15 02:41:11;;;;;;;24.13;7.90;;;;;;;11.97;87.97;102186.91;5003693;28;20026;-71
2022/07/15 02:43:37;;;;;;;21.02;7.53;;;;;;;11.92;88.08;102196.63;5001227;28;20034;-71
2022/07/15 02:46:02;;;;;;;17.83;6.88;;;;;;;11.88;87.64;102187.09;5003393;28;20032;-70
2022/07/15 02:48:27;;;;;;;19.80;6.80;;;;;;;11.83;87.64;102184.09;4995287;28;20037;-70
2022/07/15 02:50:53;;;;;;;17.73;7.15;;;;;;;11.76;87.58;102182.34;5000670;28;20375;-70
2022/07/15 02:53:19;;;;;;;18.85;7.45;;;;;;;11.77;88.39;102190.41;4998399;28;20149;-71
2022/07/15 02:55:44;;;;;;;18.80;6.97;;;;;;;11.73;88.72;102185.53;5004568;28;20556;-70
2022/07/15 02:58:09;;;;;;;21.05;7.60;;;;;;;11.70;88.84;102198.63;5003040;28;20117;-71
2022/07/15 03:00:35;;;;;;;17.90;7.38;;;;;;;11.73;88.75;102202.03;5017281;28;20630;-70
2022/07/15 03:03:00;;;;;;;17.70;7.45;;;;;;;11.69;88.93;102205.19;4995194;28;20089;-71
2022/07/15 03:05:25;;;;;;;21.52;8.02;;;;;;;11.70;89.21;102217.03;4983652;28;20023;-71
2022/07/15 03:07:51;;;;;;;19.10;8.30;;;;;;;11.67;89.24;102217.47;4984485;28;20062;-71
2022/07/15 03:10:16;;;;;;;19.00;7.82;;;;;;;11.74;89.37;102211.97;4992505;28;20088;-71
2022/07/15 03:12:42;;;;;;;18.90;6.63;;;;;;;11.75;88.93;102221.94;4993308;28;20027;-71
2022/07/15 03:15:08;;;;;;;16.83;7.53;;;;;;;11.80;89.30;102217.50;4983141;28;20054;-71
2022/07/15 03:17:33;;;;;;;13.90;7.35;;;;;;;11.83;88.80;102221.78;4988309;28;20034;-71
2022/07/15 03:19:58;;;;;;;19.27;7.47;;;;;;;11.88;89.11;102219.28;4986927;28;20134;-71
2022/07/15 03:22:29;;;;;;;17.23;7.35;;;;;;;11.93;89.07;102223.09;4987465;28;20030;-71
2022/07/15 03:24:55;;;;;;;23.67;8.05;;;;;;;11.97;89.38;102225.47;4987802;28;20026;-71
2022/07/15 03:27:20;;;;;;;14.55;6.68;;;;;;;12.01;88.84;102230.31;4992549;28;20061;-72
2022/07/15 03:29:45;;;;;;;20.33;7.75;;;;;;;12.03;88.75;102230.13;5007672;28;20073;-71
2022/07/15 03:32:11;;;;;;;16.17;7.00;;;;;;;12.03;88.72;102239.25;5005333;28;20030;-71
2022/07/15 03:34:37;;;;;;;18.55;8.43;;;;;;;12.04;88.89;102237.34;4985740;28;20572;-71
2022/07/15 03:37:03;;;;;;;19.83;7.40;;;;;;;12.04;89.00;102234.59;4987479;28;20018;-71
2022/07/15 03:39:28;;;;;;;17.90;7.47;;;;;;;12.06;88.91;102241.56;4987721;28;20034;-72
2022/07/15 03:41:53;;;;;;;20.85;7.80;;;;;;;12.06;88.94;102240.72;4995001;28;20057;-71
2022/07/15 03:44:19;;;;;;;16.85;7.28;;;;;;;12.04;89.64;102240.94;5003219;28;20443;-71
2022/07/15 03:46:47;;;;;;;23.38;7.93;;;;;;;12.02;89.69;102239.47;4999248;28;20077;-70
2022/07/15 03:49:13;;;;;;;19.42;8.13;;;;;;;11.96;89.50;102238.34;4986780;28;20031;-71
2022/07/15 03:51:38;;;;;;;18.85;7.88;;;;;;;11.92;89.75;102243.44;4987483;28;20033;-71
2022/07/15 03:54:04;;;;;;;22.40;8.38;;;;;;;11.93;89.97;102252.53;4986494;28;20038;-71
2022/07/15 03:56:30;;;;;;;18.88;8.02;;;;;;;11.93;90.56;102249.78;4998719;28;20034;-71
2022/07/15 03:58:56;;;;;;;19.67;7.47;;;;;;;11.92;90.73;102259.97;5006128;28;20477;-71
2022/07/15 04:01:22;;;;;;;19.23;8.05;;;;;;;11.95;90.37;102258.69;5006672;28;20052;-71
2022/07/15 04:03:49;;;;;;;16.58;7.78;;;;;;;11.97;90.39;102261.25;4990991;28;20022;-71
2022/07/15 04:06:15;;;;;;;21.63;7.88;;;;;;;11.99;90.38;102265.47;4986190;28;20047;-71
2022/07/15 04:08:41;;;;;;;16.35;7.28;;;;;;;12.02;90.07;102267.00;4993825;28;20108;-71
2022/07/15 04:11:07;;;;;;;18.83;7.60;;;;;;;12.06;89.55;102255.34;5006446;28;20485;-70
2022/07/15 04:13:32;;;;;;;17.95;7.65;;;;;;;12.14;89.67;102265.34;5002386;28;20033;-71
2022/07/15 04:15:57;;;;;;;17.50;7.57;;;;;;;12.20;89.82;102264.50;5006041;28;20430;-71
2022/07/15 04:18:22;;;;;;;27.52;8.57;;;;;;;12.29;89.74;102265.16;5005708;28;20030;-71
2022/07/15 04:20:48;;;;;;;19.15;8.52;;;;;;;12.36;89.68;102261.38;4997116;28;20027;-71
2022/07/15 04:23:13;;;;;;;20.38;8.20;;;;;;;12.43;89.52;102258.66;4986374;28;20031;-71
2022/07/15 04:25:39;;;;;;;26.95;8.68;;;;;;;12.50;89.80;102261.41;4986287;28;20084;-71
2022/07/15 04:28:05;;;;;;;17.17;8.45;;;;;;;12.56;89.05;102257.81;4986198;28;20025;-71
2022/07/15 04:30:30;;;;;;;21.08;8.75;;;;;;;12.65;89.09;102253.78;4986565;28;20029;-72
2022/07/15 04:32:56;;;;;;;22.45;8.85;;;;;;;12.89;89.08;102250.44;4984548;28;20030;-71
2022/07/15 04:35:21;;;;;;;26.55;9.40;;;;;;;13.32;86.52;102255.50;5006330;28;20531;-71
2022/07/15 04:37:46;;;;;;;21.42;8.80;;;;;;;13.48;85.64;102260.59;5006054;28;20030;-69
2022/07/15 04:40:12;;;;;;;20.80;8.15;;;;;;;13.49;84.85;102259.53;5006584;28;20022;-70
2022/07/15 04:42:37;;;;;;;22.83;8.15;;;;;;;13.44;85.38;102264.00;4997947;28;20054;-70
2022/07/15 04:45:03;;;;;;;22.85;9.00;;;;;;;13.34;85.68;102269.97;5000894;28;20025;-70
2022/07/15 04:47:28;;;;;;;15.02;7.72;;;;;;;13.26;86.30;102264.66;5005690;28;20044;-70
2022/07/15 04:52:46;;;;;;;22.15;8.07;;;;;;;13.18;86.72;102271.22;4999058;28;20447;-70
2022/07/15 04:55:12;;;;;;;23.13;10.00;;;;;;;13.12;87.14;102272.03;4986359;28;20081;-70
2022/07/15 04:57:37;;;;;;;27.83;8.38;;;;;;;13.11;87.52;102275.88;4998575;28;20106;-70
2022/07/15 05:00:04;;;;;;;18.02;7.90;;;;;;;13.13;87.72;102273.78;5003816;28;20506;-70
2022/07/15 05:02:30;;;;;;;27.42;9.90;;;;;;;13.14;87.42;102274.63;4997060;28;20023;-69
2022/07/15 05:04:55;;;;;;;21.67;8.95;;;;;;;13.17;87.40;102271.41;4982270;28;20827;-69
2022/07/15 05:07:20;;;;;;;18.83;7.65;;;;;;;13.16;87.59;102269.72;4984874;28;20085;-70
2022/07/15 05:09:45;;;;;;;22.35;8.15;;;;;;;13.17;88.10;102266.75;4985962;28;20033;-70
2022/07/15 05:12:11;;;;;;;20.45;8.23;;;;;;;13.16;88.30;102278.00;4992372;28;20112;-70
2022/07/15 05:14:40;;;;;;;24.95;8.20;;;;;;;13.16;87.85;102275.25;4985557;28;20062;-70
2022/07/15 05:17:06;;;;;;;20.85;7.80;;;;;;;13.19;87.82;102274.81;4983156;28;20457;-70
2022/07/15 05:19:31;;;;;;;18.55;8.45;;;;;;;13.21;88.13;102279.09;4998983;28;20488;-69
2022/07/15 05:21:57;;;;;;;24.77;7.40;;;;;;;13.26;88.29;102283.97;5004507;28;20041;-69
2022/07/15 05:24:22;;;;;;;22.65;8.18;;;;;;;13.29;88.07;102278.03;5004100;28;20120;-70
2022/07/15 05:26:47;;;;;;;21.75;8.65;;;;;;;13.32;88.13;102283.09;4992000;28;20064;-70
2022/07/15 05:29:12;;;;;;;17.88;6.95;;;;;;;13.36;88.01;102280.78;4984644;28;20041;-70
2022/07/15 05:31:38;;;;;;;15.77;7.00;;;;;;;13.38;87.38;102278.63;4984903;28;20061;-70
2022/07/15 05:34:03;;;;;;;19.92;7.25;;;;;;;13.41;87.47;102280.97;4984382;28;20030;-70
2022/07/15 05:36:28;;;;;;;19.85;6.80;;;;;;;13.47;87.83;102280.13;4984827;28;20058;-70
2022/07/15 05:38:53;;;;;;;18.23;7.13;;;;;;;13.52;87.12;102277.56;4992304;28;20125;-70
2022/07/15 05:41:19;;;;;;;24.98;6.53;;;;;;;13.57;86.62;102279.66;5004429;28;20401;-70
2022/07/15 05:43:44;;;;;;;22.50;7.03;;;;;;;13.62;86.61;102274.34;4989146;28;20034;-70
2022/07/15 05:46:11;;;;;;;18.73;6.90;;;;;;;13.65;86.68;102276.69;4982876;28;20455;-70
2022/07/15 05:48:39;;;;;;;24.27;7.22;;;;;;;13.68;86.50;102276.25;4983725;28;20030;-69
2022/07/15 05:51:04;;;;;;;18.02;7.30;;;;;;;13.73;86.54;102268.16;4991944;28;20140;-69
2022/07/15 05:53:30;;;;;;;22.50;8.20;;;;;;;13.77;85.95;102274.94;5004758;28;20186;-69
2022/07/15 05:55:56;;;;;;;18.73;7.65;;;;;;;13.83;85.36;102276.00;4992590;28;20054;-70
2022/07/15 05:58:21;;;;;;;18.75;7.20;;;;;;;13.86;85.30;102272.81;4984992;28;20425;-69
2022/07/15 06:00:46;;;;;;;23.17;7.90;;;;;;;13.95;85.57;102271.50;4983720;28;20076;-69
2022/07/15 06:03:11;;;;;;;22.88;7.70;;;;;;;14.03;85.54;102274.00;4983367;28;20019;-70
2022/07/15 06:05:37;;;;;;;20.13;6.97;;;;;;;14.08;84.64;102270.59;5000108;28;20026;-70
2022/07/15 06:08:02;;;;;;;23.70;7.07;;;;;;;14.15;84.40;102271.41;5004675;28;20042;-70
2022/07/15 06:10:27;;;;;;;23.08;6.93;;;;;;;14.22;84.27;102269.47;4990225;28;20034;-70
2022/07/15 06:12:53;;;;;;;21.10;7.13;;;;;;;14.29;84.09;102270.25;4998155;28;20033;-70
2022/07/15 06:15:19;;;;;;;19.85;7.05;;;;;;;14.38;83.11;102276.38;4992105;28;20034;-70
2022/07/15 06:17:45;;;;;;;17.48;5.90;;;;;;;14.43;82.49;102269.13;5003894;28;20045;-70
2022/07/15 06:20:11;;;;;;;15.70;5.20;;;;;;;14.47;82.46;102267.66;4996652;28;20544;-70
2022/07/15 06:22:36;;;;;;;17.35;5.38;;;;;;;14.51;82.26;102268.91;4985783;28;20045;-70
2022/07/15 06:25:02;;;;;;;19.35;6.50;;;;;;;14.58;81.24;102274.38;5004072;28;20022;-70
2022/07/15 06:27:29;;;;;;;24.42;5.70;;;;;;;14.65;81.73;102272.44;5004850;28;20034;-70
2022/07/15 06:29:54;;;;;;;17.88;5.22;;;;;;;14.72;81.34;102278.75;4999605;28;20046;-70
2022/07/15 06:32:20;;;;;;;15.95;4.60;;;;;;;14.78;80.45;102271.47;4984202;28;20049;-70
2022/07/15 06:34:45;;;;;;;16.58;4.85;;;;;;;14.84;80.79;102275.25;4985136;28;20037;-70
2022/07/15 06:37:10;;;;;;;15.23;4.32;;;;;;;14.87;80.69;102270.13;4984152;28;20026;-70
2022/07/15 06:39:36;;;;;;;16.70;4.10;;;;;;;14.95;79.00;102267.09;4982341;28;20108;-70
2022/07/15 06:42:03;;;;;;;16.48;3.97;;;;;;;15.03;79.94;102269.56;4984460;28;20054;-69
2022/07/15 06:44:28;;;;;;;17.17;3.88;;;;;;;15.08;77.75;102262.53;4984235;28;20022;-70
2022/07/15 06:46:53;;;;;;;15.65;3.08;;;;;;;15.13;77.98;102271.00;4983375;28;20093;-70
2022/07/15 06:49:19;;;;;;;9.85;2.92;;;;;;;15.15;75.30;102268.84;4985316;28;20034;-70
2022/07/15 06:51:44;;;;;;;12.38;3.05;;;;;;;15.20;74.79;102269.84;4987635;28;20436;-70
2022/07/15 06:54:11;;;;;;;18.27;3.28;;;;;;;15.28;74.67;102272.34;4987877;28;20022;-70
2022/07/15 06:56:37;;;;;;;15.27;3.55;;;;;;;15.35;74.72;102265.88;4987572;28;20436;-70
2022/07/15 06:59:02;;;;;;;12.68;2.55;;;;;;;15.39;71.92;102264.34;4987613;28;20133;-69
2022/07/15 07:01:27;;;;;;;14.43;3.50;;;;;;;15.45;73.71;102268.97;4986072;28;20041;-70
2022/07/15 07:03:53;;;;;;;16.77;2.83;;;;;;;15.51;73.00;102270.81;4986259;28;20010;-70
2022/07/15 07:06:18;;;;;;;13.70;2.78;;;;;;;15.59;71.84;102267.78;4987402;28;20117;-70
2022/07/15 07:08:46;;;;;;;13.63;2.95;;;;;;;15.67;72.21;102264.75;4987439;28;20026;-69
2022/07/15 07:11:11;;;;;;;13.50;2.53;;;;;;;15.77;72.64;102269.75;4987850;28;20044;-70
2022/07/15 07:13:37;;;;;;;10.77;2.22;;;;;;;15.82;71.38;102270.75;4992217;28;20034;-70
2022/07/15 07:16:02;;;;;;;11.75;3.30;;;;;;;15.87;70.17;102274.75;4986798;28;20038;-70
2022/07/15 07:18:27;;;;;;;14.25;2.78;;;;;;;15.97;70.14;102275.06;4982897;28;20038;-71
2022/07/15 07:20:53;;;;;;;13.13;3.53;;;;;;;16.06;69.26;102281.94;4978124;28;20044;-69
2022/07/15 07:23:19;;;;;;;14.75;2.40;;;;;;;16.11;67.89;102273.78;4987579;28;20018;-70
2022/07/15 07:25:44;;;;;;;12.77;2.47;;;;;;;16.18;68.29;102274.56;4988589;28;20014;-70
2022/07/15 07:28:09;;;;;;;15.68;2.50;;;;;;;16.28;68.85;102283.16;4986179;28;20473;-71
2022/07/15 07:30:35;;;;;;;14.02;2.47;;;;;;;16.39;67.92;102277.91;4989523;28;20040;-70
2022/07/15 07:33:00;;;;;;;13.05;3.10;;;;;;;16.49;67.55;102272.66;4985209;28;20134;-70
2022/07/15 07:35:25;;;;;;;10.60;2.45;;;;;;;16.73;68.12;102280.00;4983884;28;20444;-70
2022/07/15 07:37:51;;;;;;;13.52;3.08;;;;;;;16.94;66.41;102281.38;4989323;28;20120;-70
2022/07/15 07:40:16;;;;;;;13.77;3.28;;;;;;;17.19;65.95;102272.00;4983169;28;20081;-70
2022/07/15 07:42:43;;;;;;;18.38;2.88;;;;;;;17.54;66.15;102280.34;4991062;28;20035;-71
2022/07/15 07:45:10;;;;;;;15.00;2.45;;;;;;;17.77;64.03;102287.81;4985272;28;20076;-71
2022/07/15 07:47:37;;;;;;;13.20;3.05;;;;;;;17.71;60.85;102281.28;4998963;28;20622;-72
2022/07/15 07:50:04;;;;;;;13.13;3.03;;;;;;;17.72;61.34;102288.53;4994402;28;20042;-72
2022/07/15 07:52:29;;;;;;;9.88;2.72;;;;;;;17.74;62.27;102293.84;5001375;28;20038;-72
2022/07/15 07:54:55;;;;;;;12.45;2.38;;;;;;;17.69;62.61;102288.16;4986197;28;20038;-72
2022/07/15 07:57:20;;;;;;;10.07;2.50;;;;;;;17.52;61.50;102288.06;4986218;28;20049;-73
2022/07/15 07:59:45;;;;;;;12.40;2.67;;;;;;;17.46;60.67;102281.53;5001264;28;20038;-71
2022/07/15 08:02:11;;;;;;;17.13;2.80;;;;;;;17.36;59.87;102284.06;4983835;28;20030;-71
2022/07/15 08:04:36;;;;;;;8.88;2.20;;;;;;;17.24;61.44;102286.00;4986777;28;20018;-72
2022/07/15 08:07:02;;;;;;;12.60;2.90;;;;;;;17.17;62.96;102280.53;4986484;28;20117;-72
2022/07/15 08:09:27;;;;;;;14.10;2.58;;;;;;;17.22;64.30;102283.44;4987320;28;20137;-71
2022/07/15 08:11:52;;;;;;;13.45;2.42;;;;;;;17.32;63.91;102282.84;4985866;28;20030;-71
2022/07/15 08:14:18;;;;;;;11.82;2.70;;;;;;;17.41;64.07;102280.56;4987302;28;20334;-71
2022/07/15 08:16:45;;;;;;;12.35;3.42;;;;;;;17.49;63.79;102283.84;4986428;28;20027;-73
2022/07/15 08:19:15;;;;;;;15.27;3.33;;;;;;;17.50;62.92;102284.69;4985037;28;20031;-72
2022/07/15 08:21:40;;;;;;;11.35;2.35;;;;;;;17.56;62.66;102289.25;4986515;28;20034;-72
2022/07/15 08:24:06;;;;;;;11.35;2.08;;;;;;;17.64;63.72;102286.13;4986359;28;20126;-72
2022/07/15 08:26:31;;;;;;;13.65;3.00;;;;;;;17.69;61.10;102289.03;4986920;28;20085;-72
2022/07/15 08:28:56;;;;;;;11.23;1.92;;;;;;;17.72;60.53;102284.91;4984537;28;20026;-71
2022/07/15 08:31:21;;;;;;;11.63;2.10;;;;;;;17.83;60.31;102284.91;4986404;28;20089;-71
2022/07/15 08:33:47;;;;;;;8.90;2.30;;;;;;;17.83;58.10;102290.47;5000443;28;20019;-71
2022/07/15 08:36:12;;;;;;;15.55;2.47;;;;;;;17.91;59.65;102286.47;4985221;28;20026;-71
2022/07/15 08:38:38;;;;;;;9.50;1.92;;;;;;;18.03;61.78;102289.22;4983686;28;20042;-71
2022/07/15 08:41:03;;;;;;;9.73;1.90;;;;;;;18.04;59.32;102286.19;4986056;28;20037;-72
2022/07/15 08:43:29;;;;;;;9.25;1.73;;;;;;;18.00;57.25;102285.00;4990943;28;20057;-71
2022/07/15 08:45:55;;;;;;;8.82;1.73;;;;;;;18.09;59.77;102288.22;5003862;28;20049;-70
2022/07/15 08:48:25;;;;;;;7.68;1.95;;;;;;;18.20;59.63;102286.50;5002290;28;20034;-69
2022/07/15 08:50:51;;;;;;;7.97;1.67;;;;;;;18.37;56.23;102273.53;4996957;28;20069;-69
2022/07/15 08:53:17;;;;;;;10.05;1.73;;;;;;;18.44;57.68;102278.91;4985563;28;20084;-70
2022/07/15 08:55:46;;;;;;;9.95;2.00;;;;;;;18.47;58.12;102282.06;4980846;28;20533;-71
2022/07/15 08:58:11;;;;;;;11.80;1.88;;;;;;;18.55;56.56;102275.25;4988197;28;20730;-71
2022/07/15 09:00:36;;;;;;;8.60;1.90;;;;;;;18.49;55.26;102282.66;4983947;28;20066;-70
2022/07/15 09:03:04;;;;;;;7.25;1.88;;;;;;;18.41;55.11;102275.56;4981889;28;20108;-70
2022/07/15 09:05:33;;;;;;;6.65;1.58;;;;;;;18.50;56.46;102278.78;4988393;28;20038;-69
2022/07/15 09:08:07;;;;;;;9.23;2.53;;;;;;;18.64;56.67;102274.59;4980387;28;20041;-70
2022/07/15 09:10:48;;;;;;;8.57;1.83;;;;;;;18.89;55.16;102276.19;4994820;28;20022;-70
2022/07/15 09:13:34;;;;;;;7.30;1.40;;;;;;;18.96;55.10;102273.22;4986873;28;20045;-70
2022/07/15 09:16:02;;;;;;;10.60;1.73;;;;;;;18.92;52.79;102276.53;4986852;28;20042;-70
2022/07/15 09:18:33;;;;;;;8.55;1.50;;;;;;;19.13;54.25;102268.53;4985702;28;20030;-70
2022/07/15 09:20:58;;;;;;;9.15;1.30;;;;;;;19.22;53.31;102266.16;4971712;28;20089;-70
2022/07/15 09:23:29;;;;;;;7.18;1.50;;;;;;;19.32;52.82;102278.31;4985223;28;20409;-70
2022/07/15 09:26:21;;;;;;;10.05;1.48;;;;;;;19.55;52.15;102274.47;4980774;28;20026;-69
2022/07/15 09:28:46;;;;;;;5.32;1.40;;;;;;;19.77;49.74;102277.34;4988356;28;20055;-70
2022/07/15 09:34:01;;;;;;;8.90;1.75;;;;;;;20.13;49.41;102275.00;4973199;28;20037;-70
2022/07/15 09:36:29;;;;;;;5.38;1.40;;;;;;;20.58;46.86;102277.50;4983312;28;20089;-70
2022/07/15 09:38:56;;;;;;;;;;;;;;;21.95;50.56;102274.94;4991834;28;20384;-70
2022/07/15 09:41:41;;;;;;;7.03;1.55;;;;;;;24.68;41.06;102272.50;4987716;28;19917;-70
2022/07/15 09:44:17;;;;;;;8.60;1.17;;;;;;;27.20;36.62;102273.78;5003122;28;20037;-70
2022/07/15 09:46:47;;;;;;;5.05;1.20;;;;;;;28.79;33.38;102271.34;4995530;28;20068;-70
2022/07/15 09:49:14;;;;;;;4.20;1.17;;;;;;;29.87;30.17;102271.06;4992703;28;20070;-72
2022/07/15 09:51:53;;;;;;;9.68;1.52;;;;;;;29.96;31.71;102279.63;5014655;28;20042;-71
2022/07/15 09:54:18;;;;;;;8.45;1.30;;;;;;;30.75;29.90;102278.63;4984372;28;20032;-72
2022/07/15 09:56:48;;;;;;;8.20;1.20;;;;;;;31.23;28.05;102274.75;4985422;28;20041;-71
2022/07/15 09:59:14;;;;;;;7.00;1.20;;;;;;;31.71;26.04;102271.59;4987075;28;20070;-71
2022/07/15 10:01:40;;;;;;;8.50;1.48;;;;;;;31.87;26.06;102260.53;5002171;28;20320;-71
2022/07/15 10:04:06;;;;;;;6.13;1.40;;;;;;;32.37;26.27;102256.91;4994484;28;20190;-72
2022/07/15 10:06:35;;;;;;;7.43;1.30;;;;;;;31.96;24.90;102267.00;4997670;28;20046;-72
2022/07/15 10:09:02;;;;;;;5.50;1.00;;;;;;;32.37;24.92;102268.28;5000289;28;20037;-72
2022/07/15 10:11:29;;;;;;;5.85;1.08;;;;;;;32.25;23.60;102262.50;4985006;28;20066;-72
2022/07/15 10:14:25;;;;;;;7.43;1.08;;;;;;;33.29;25.38;102261.59;4989735;28;20038;-71
2022/07/15 10:17:03;;;;;;;6.10;1.20;;;;;;;33.52;23.46;102254.34;4995994;28;20596;-71
2022/07/15 10:19:59;;;;;;;6.40;1.48;;;;;;;33.45;23.99;102247.53;4994155;28;20049;-71
2022/07/15 10:22:55;;;;;;;6.93;1.45;;;;;;;34.05;25.34;102252.47;4981291;28;20042;-71
2022/07/15 10:25:49;;;;;;;6.07;1.20;;;;;;;34.17;24.15;102250.81;4965761;28;20035;-72
2022/07/15 10:28:48;;;;;;;3.95;1.10;;;;;;;34.42;24.73;102246.72;4967369;28;20446;-72
2022/07/15 10:31:16;;;;;;;6.45;1.02;;;;;;;34.47;22.49;102240.78;4970622;28;20033;-71
2022/07/15 10:33:42;;;;;;;5.50;1.20;;;;;;;34.59;22.81;102234.22;4988744;28;20477;-71
2022/07/15 10:36:08;;;;;;;6.63;1.30;;;;;;;33.70;21.88;102243.53;5001850;28;20026;-71
2022/07/15 10:38:35;;;;;;;4.47;1.02;;;;;;;30.68;27.26;102247.06;5002691;28;20492;-72
2022/07/15 10:41:16;;;;;;;6.03;1.30;;;;;;;29.16;30.52;102245.56;4994891;28;20113;-72
2022/07/15 10:43:49;;;;;;;7.47;1.02;;;;;;;27.65;31.32;102234.56;4987860;28;20065;-71
2022/07/15 10:46:19;;;;;;;7.22;1.10;;;;;;;26.52;32.72;102230.06;4984649;28;20430;-72
2022/07/15 10:48:46;;;;;;;4.65;0.70;;;;;;;26.64;32.34;102235.22;4985491;28;20727;-72
2022/07/15 10:51:23;;;;;;;4.63;1.10;;;;;;;27.66;35.35;102227.75;4982165;28;20043;-71
2022/07/15 10:53:49;;;;;;;4.32;0.88;;;;;;;27.94;32.36;102220.16;4984960;28;20361;-72
2022/07/15 10:56:37;;;;;;;5.22;1.00;;;;;;;27.97;32.85;102213.03;4984761;28;20019;-70
2022/07/15 10:59:08;;;;;;;4.55;0.98;;;;;;;27.40;32.35;102211.34;4980523;28;20082;-71
2022/07/15 11:01:34;;;;;;;4.82;0.93;;;;;;;26.22;33.51;102205.97;4983646;28;20030;-69
2022/07/15 11:04:18;;;;;;;7.07;1.08;;;;;;;25.92;33.73;102212.00;4984901;28;20026;-73
2022/07/15 11:07:02;;;;;;;5.05;1.27;;;;;;;25.48;35.19;102211.09;4984802;28;20046;-72
2022/07/15 11:09:47;;;;;;;5.15;0.90;;;;;;;24.93;36.13;102209.66;4993031;28;20125;-71
2022/07/15 11:12:14;;;;;;;2.30;0.73;;;;;;;24.87;34.77;102205.22;4984347;28;20023;-72
2022/07/15 11:14:50;;;;;;;3.00;0.77;;;;;;;24.94;33.53;102209.38;4985031;28;20057;-72
2022/07/15 11:17:24;;;;;;;6.30;0.88;;;;;;;25.25;36.24;102200.69;4984421;28;20085;-72
2022/07/15 11:19:55;;;;;;;3.45;0.80;;;;;;;25.14;35.43;102208.34;4983919;28;20039;-72
2022/07/15 11:22:22;;;;;;;4.03;0.70;;;;;;;24.79;33.74;102204.72;4998677;28;20038;-71
2022/07/15 11:24:48;;;;;;;4.07;0.77;;;;;;;24.72;36.22;102198.59;5004365;28;20021;-71